createdAt,value
2018-12-26T00:01:15.890Z,6.50
2018-12-26T00:03:46.468Z,6.40
2018-12-26T00:06:16.014Z,6.40
2018-12-26T00:08:46.036Z,6.40
2018-12-26T00:11:15.629Z,6.40
2018-12-26T00:13:45.292Z,6.40
2018-12-26T00:16:15.651Z,6.30
2018-12-26T00:18:45.693Z,6.30
2018-12-26T00:21:16.267Z,6.30
2018-12-26T00:23:45.443Z,6.30
2018-12-26T00:26:15.274Z,6.30
2018-12-26T00:28:45.795Z,6.20
2018-12-26T00:31:16.118Z,6.20
2018-12-26T00:33:46.437Z,6.20
2018-12-26T00:36:16.229Z,6.10
2018-12-26T00:38:46.117Z,6.10
2018-12-26T00:41:16.969Z,6.10
2018-12-26T00:43:46.384Z,6.10
2018-12-26T00:46:15.680Z,6.10
2018-12-26T00:48:46.063Z,6.10
2018-12-26T00:51:16.692Z,6.10
2018-12-26T00:53:46.076Z,6.00
2018-12-26T00:56:15.684Z,6.00
2018-12-26T00:58:45.334Z,6.00
2018-12-26T01:01:14.808Z,6.00
2018-12-26T01:03:44.419Z,6.00
2018-12-26T01:06:13.841Z,6.10
2018-12-26T01:08:43.149Z,6.10
2018-12-26T01:11:12.295Z,6.00
2018-12-26T01:13:42.531Z,6.20
2018-12-26T01:16:12.042Z,6.10
2018-12-26T01:18:41.623Z,6.00
2018-12-26T01:21:11.882Z,5.90
2018-12-26T01:23:41.478Z,5.90
2018-12-26T01:26:18.951Z,5.90
2018-12-26T01:28:41.111Z,5.90
2018-12-26T01:31:10.611Z,5.70
2018-12-26T01:33:40.024Z,5.70
2018-12-26T01:36:16.356Z,5.60
2018-12-26T01:38:46.415Z,5.50
2018-12-26T01:41:15.862Z,5.40
2018-12-26T01:43:45.444Z,5.40
2018-12-26T01:46:16.429Z,5.30
2018-12-26T01:48:46.861Z,5.40
2018-12-26T01:51:16.573Z,5.40
2018-12-26T01:53:47.271Z,5.50
2018-12-26T01:56:16.617Z,5.40
2018-12-26T01:58:46.813Z,5.50
2018-12-26T02:01:16.844Z,5.50
2018-12-26T02:03:47.083Z,5.50
2018-12-26T02:06:16.379Z,5.50
2018-12-26T02:08:46.930Z,5.50
2018-12-26T02:11:17.510Z,5.50
2018-12-26T02:13:47.015Z,5.50
2018-12-26T02:16:16.267Z,5.40
2018-12-26T02:18:45.690Z,5.40
2018-12-26T02:21:15.064Z,5.30
2018-12-26T02:23:44.385Z,5.30
2018-12-26T02:26:13.824Z,5.30
2018-12-26T02:28:43.069Z,5.20
2018-12-26T02:31:12.679Z,5.20
2018-12-26T02:33:42.272Z,5.20
2018-12-26T02:36:11.843Z,5.30
2018-12-26T02:38:41.339Z,5.20
2018-12-26T02:41:10.676Z,5.30
2018-12-26T02:43:39.832Z,5.20
2018-12-26T02:46:09.233Z,5.10
2018-12-26T02:48:38.742Z,5.10
2018-12-26T02:51:08.200Z,5.10
2018-12-26T02:53:37.193Z,5.20
2018-12-26T02:56:07.233Z,5.20
2018-12-26T02:58:37.263Z,5.30
2018-12-26T03:01:08.348Z,5.30
2018-12-26T03:03:38.006Z,5.30
2018-12-26T03:06:07.816Z,5.40
2018-12-26T03:08:37.078Z,5.40
2018-12-26T03:11:07.603Z,5.40
2018-12-26T03:13:36.918Z,5.40
2018-12-26T03:16:06.416Z,5.40
2018-12-26T03:18:35.805Z,5.50
2018-12-26T03:21:06.202Z,5.50
2018-12-26T03:23:36.489Z,5.50
2018-12-26T03:26:05.799Z,5.60
2018-12-26T03:28:35.805Z,5.60
2018-12-26T03:31:05.574Z,5.60
2018-12-26T03:33:35.304Z,5.60
2018-12-26T03:36:05.022Z,5.60
2018-12-26T03:38:34.651Z,5.60
2018-12-26T03:41:04.639Z,5.60
2018-12-26T03:43:34.149Z,5.60
2018-12-26T03:46:04.608Z,5.60
2018-12-26T03:48:33.918Z,5.60
2018-12-26T03:51:03.523Z,5.50
2018-12-26T03:53:33.158Z,5.50
2018-12-26T03:56:02.478Z,5.50
2018-12-26T03:58:33.325Z,5.50
2018-12-26T04:01:04.654Z,5.50
2018-12-26T04:03:34.725Z,5.50
2018-12-26T04:06:04.269Z,5.60
2018-12-26T04:08:33.785Z,5.60
2018-12-26T04:11:03.424Z,5.60
2018-12-26T04:13:33.143Z,5.70
2018-12-26T04:16:02.867Z,5.70
2018-12-26T04:18:34.467Z,5.70
2018-12-26T04:21:03.801Z,5.60
2018-12-26T04:23:33.215Z,5.70
2018-12-26T04:26:02.788Z,5.70
2018-12-26T04:28:32.396Z,5.60
2018-12-26T04:31:01.981Z,5.60
2018-12-26T04:33:31.378Z,5.60
2018-12-26T04:36:01.064Z,5.70
2018-12-26T04:38:31.713Z,5.70
2018-12-26T04:41:01.049Z,5.60
2018-12-26T04:43:32.872Z,5.60
2018-12-26T04:46:02.416Z,5.50
2018-12-26T04:48:32.818Z,5.50
2018-12-26T04:51:02.080Z,5.50
2018-12-26T04:53:31.528Z,5.50
2018-12-26T04:56:00.815Z,5.50
2018-12-26T04:58:30.998Z,5.50
2018-12-26T05:01:00.839Z,5.50
2018-12-26T05:03:30.302Z,5.40
2018-12-26T05:06:00.052Z,5.40
2018-12-26T05:08:29.392Z,5.40
2018-12-26T05:10:59.454Z,5.40
2018-12-26T05:13:28.893Z,5.30
2018-12-26T05:15:58.474Z,5.40
2018-12-26T05:18:27.817Z,5.30
2018-12-26T05:20:57.362Z,5.30
2018-12-26T05:23:26.796Z,5.30
2018-12-26T05:25:56.156Z,5.30
2018-12-26T05:28:25.533Z,5.30
2018-12-26T05:30:54.873Z,5.30
2018-12-26T05:33:24.210Z,5.30
2018-12-26T05:35:54.243Z,5.30
2018-12-26T05:38:23.677Z,5.40
2018-12-26T05:40:53.292Z,5.40
2018-12-26T05:43:22.952Z,5.40
2018-12-26T05:45:52.540Z,5.40
2018-12-26T05:48:22.059Z,5.40
2018-12-26T05:50:52.463Z,5.40
2018-12-26T05:53:21.906Z,5.40
2018-12-26T05:55:51.325Z,5.40
2018-12-26T05:58:21.751Z,5.40
2018-12-26T06:00:51.463Z,5.40
2018-12-26T06:03:21.782Z,5.50
2018-12-26T06:05:51.284Z,5.50
2018-12-26T06:08:22.764Z,5.50
2018-12-26T06:10:52.145Z,5.50
2018-12-26T06:13:22.393Z,5.50
2018-12-26T06:15:52.125Z,5.40
2018-12-26T06:18:21.703Z,5.40
2018-12-26T06:20:51.258Z,5.40
2018-12-26T06:23:20.612Z,5.40
2018-12-26T06:25:50.098Z,5.30
2018-12-26T06:28:20.588Z,5.30
2018-12-26T06:30:50.154Z,5.30
2018-12-26T06:33:20.309Z,5.30
2018-12-26T06:35:50.016Z,5.30
2018-12-26T06:38:19.615Z,5.30
2018-12-26T06:40:49.179Z,5.30
2018-12-26T06:43:19.614Z,5.30
2018-12-26T06:45:49.018Z,5.30
2018-12-26T06:48:21.635Z,5.30
2018-12-26T06:50:51.200Z,5.30
2018-12-26T06:53:21.045Z,5.30
2018-12-26T06:55:51.875Z,5.30
2018-12-26T06:58:23.101Z,5.40
2018-12-26T07:00:52.956Z,5.40
2018-12-26T07:03:26.018Z,5.30
2018-12-26T07:05:54.887Z,5.20
2018-12-26T07:08:24.617Z,5.10
2018-12-26T07:10:54.218Z,5.10
2018-12-26T07:13:24.931Z,5.10
2018-12-26T07:15:55.758Z,5.10
2018-12-26T07:18:26.447Z,5.20
2018-12-26T07:20:56.322Z,5.20
2018-12-26T07:23:25.822Z,5.30
2018-12-26T07:25:55.832Z,5.30
2018-12-26T07:28:25.972Z,5.20
2018-12-26T07:30:56.841Z,5.10
2018-12-26T07:33:26.494Z,5.10
2018-12-26T07:35:56.628Z,5.10
2018-12-26T07:38:27.627Z,5.10
2018-12-26T07:41:00.082Z,5.20
2018-12-26T07:43:31.891Z,5.30
2018-12-26T07:46:01.641Z,5.30
2018-12-26T07:48:34.951Z,5.40
2018-12-26T07:51:04.867Z,5.30
2018-12-26T07:53:34.793Z,5.30
2018-12-26T07:56:05.657Z,5.40
2018-12-26T07:58:36.524Z,5.40
2018-12-26T08:01:06.567Z,5.40
2018-12-26T08:03:36.946Z,5.50
2018-12-26T08:06:06.566Z,5.40
2018-12-26T08:08:36.376Z,5.30
2018-12-26T08:11:08.989Z,5.20
2018-12-26T08:13:39.731Z,5.20
2018-12-26T08:16:10.068Z,5.30
2018-12-26T08:18:40.780Z,5.40
2018-12-26T08:21:11.520Z,5.30
2018-12-26T08:23:41.937Z,5.20
2018-12-26T08:26:11.378Z,5.30
2018-12-26T08:28:41.157Z,5.20
2018-12-26T08:31:12.016Z,5.30
2018-12-26T08:33:42.567Z,5.40
2018-12-26T08:36:13.198Z,5.40
2018-12-26T08:38:43.980Z,5.40
2018-12-26T08:41:13.686Z,5.50
2018-12-26T08:43:43.402Z,5.50
2018-12-26T08:46:13.204Z,5.40
2018-12-26T08:48:42.198Z,5.50
2018-12-26T08:51:11.607Z,5.50
2018-12-26T08:53:41.215Z,5.50
2018-12-26T08:56:11.189Z,5.50
2018-12-26T08:58:41.705Z,5.50
2018-12-26T09:01:11.452Z,5.50
2018-12-26T09:03:41.044Z,5.50
2018-12-26T09:06:10.484Z,5.50
2018-12-26T09:08:41.136Z,5.50
2018-12-26T09:11:10.720Z,5.50
2018-12-26T09:13:41.396Z,5.50
2018-12-26T09:16:11.878Z,5.40
2018-12-26T09:18:41.728Z,5.40
2018-12-26T09:21:11.816Z,5.30
2018-12-26T09:23:41.403Z,5.30
2018-12-26T09:26:10.948Z,5.30
2018-12-26T09:28:43.944Z,5.30
2018-12-26T09:31:11.777Z,5.30
2018-12-26T09:33:41.460Z,5.30
2018-12-26T09:36:12.582Z,5.30
2018-12-26T09:38:42.108Z,5.30
2018-12-26T09:41:12.846Z,5.30
2018-12-26T09:43:44.519Z,5.30
2018-12-26T09:46:14.663Z,5.30
2018-12-26T09:48:44.556Z,5.30
2018-12-26T09:51:14.852Z,5.20
2018-12-26T09:53:44.515Z,5.20
2018-12-26T09:56:14.322Z,5.20
2018-12-26T09:58:52.215Z,5.10
2018-12-26T10:01:15.553Z,5.10
2018-12-26T10:03:45.371Z,5.10
2018-12-26T10:06:15.004Z,5.10
2018-12-26T10:08:44.724Z,5.10
2018-12-26T10:11:14.544Z,5.00
2018-12-26T10:13:44.873Z,5.00
2018-12-26T10:16:15.409Z,5.00
2018-12-26T10:18:46.298Z,5.00
2018-12-26T10:21:15.639Z,5.00
2018-12-26T10:23:45.375Z,5.00
2018-12-26T10:26:14.751Z,4.90
2018-12-26T10:28:47.365Z,4.90
2018-12-26T10:31:16.888Z,4.90
2018-12-26T10:33:46.376Z,5.00
2018-12-26T10:36:15.570Z,5.00
2018-12-26T10:38:45.156Z,5.00
2018-12-26T10:41:15.401Z,5.10
2018-12-26T10:43:45.849Z,5.10
2018-12-26T10:46:15.505Z,5.00
2018-12-26T10:48:45.311Z,5.10
2018-12-26T10:51:14.834Z,5.00
2018-12-26T10:53:44.435Z,5.00
2018-12-26T10:56:14.762Z,5.00
2018-12-26T10:58:46.222Z,5.00
2018-12-26T11:01:16.503Z,5.00
2018-12-26T11:03:46.759Z,5.00
2018-12-26T11:06:16.244Z,5.00
2018-12-26T11:08:46.030Z,5.00
2018-12-26T11:11:15.668Z,4.90
2018-12-26T11:13:45.515Z,5.00
2018-12-26T11:16:16.067Z,4.90
2018-12-26T11:18:45.693Z,4.90
2018-12-26T11:21:15.577Z,4.80
2018-12-26T11:23:44.997Z,4.80
2018-12-26T11:26:14.913Z,4.80
2018-12-26T11:28:44.363Z,4.70
2018-12-26T11:31:13.998Z,4.80
2018-12-26T11:33:44.937Z,4.70
2018-12-26T11:36:14.483Z,4.70
2018-12-26T11:38:43.855Z,4.70
2018-12-26T11:41:13.746Z,4.70
2018-12-26T11:43:43.365Z,4.70
2018-12-26T11:46:12.833Z,4.80
2018-12-26T11:48:43.264Z,4.80
2018-12-26T11:51:13.143Z,4.80
2018-12-26T11:53:43.356Z,4.80
2018-12-26T11:56:13.055Z,4.80
2018-12-26T11:58:43.683Z,4.70
2018-12-26T12:01:13.511Z,4.70
2018-12-26T12:03:44.243Z,4.80
2018-12-26T12:06:14.199Z,4.80
2018-12-26T12:08:43.898Z,4.80
2018-12-26T12:11:13.545Z,4.80
2018-12-26T12:13:44.328Z,4.90
2018-12-26T12:16:13.763Z,4.90
2018-12-26T12:18:43.598Z,4.90
2018-12-26T12:21:13.745Z,4.90
2018-12-26T12:23:43.476Z,4.90
2018-12-26T12:26:14.044Z,4.90
2018-12-26T12:28:43.556Z,4.90
2018-12-26T12:31:13.800Z,4.90
2018-12-26T12:33:44.708Z,4.90
2018-12-26T12:36:14.532Z,5.00
2018-12-26T12:38:45.419Z,5.00
2018-12-26T12:41:15.895Z,5.00
2018-12-26T12:43:45.379Z,5.00
2018-12-26T12:46:15.132Z,5.10
2018-12-26T12:48:44.691Z,5.10
2018-12-26T12:51:14.217Z,5.00
2018-12-26T12:53:44.980Z,5.00
2018-12-26T12:56:15.172Z,5.00
2018-12-26T12:58:44.738Z,5.00
2018-12-26T13:01:14.377Z,5.00
2018-12-26T13:03:46.594Z,5.00
2018-12-26T13:06:14.442Z,5.00
2018-12-26T13:08:43.907Z,5.00
2018-12-26T13:11:14.238Z,5.00
2018-12-26T13:13:44.126Z,5.00
2018-12-26T13:16:14.841Z,5.10
2018-12-26T13:18:44.349Z,5.10
2018-12-26T13:21:14.238Z,5.10
2018-12-26T13:23:46.163Z,5.10
2018-12-26T13:26:16.206Z,5.10
2018-12-26T13:28:46.534Z,5.10
2018-12-26T13:31:17.558Z,5.10
2018-12-26T13:33:47.075Z,5.00
2018-12-26T13:36:16.944Z,5.10
2018-12-26T13:38:46.591Z,5.10
2018-12-26T13:41:16.333Z,5.10
2018-12-26T13:43:45.861Z,5.20
2018-12-26T13:46:15.686Z,5.10
2018-12-26T13:48:45.368Z,5.10
2018-12-26T13:51:15.729Z,5.10
2018-12-26T13:53:45.349Z,5.10
2018-12-26T13:56:14.740Z,5.10
2018-12-26T13:58:45.194Z,5.10
2018-12-26T14:01:14.423Z,5.10
2018-12-26T14:03:44.043Z,5.20
2018-12-26T14:06:14.336Z,5.20
2018-12-26T14:08:44.253Z,5.20
2018-12-26T14:11:14.741Z,5.20
2018-12-26T14:13:44.305Z,5.20
2018-12-26T14:16:13.702Z,5.20
2018-12-26T14:18:43.412Z,5.20
2018-12-26T14:21:13.687Z,5.20
2018-12-26T14:23:43.685Z,5.20
2018-12-26T14:26:13.395Z,5.20
2018-12-26T14:28:42.890Z,5.10
2018-12-26T14:31:13.885Z,5.10
2018-12-26T14:33:42.967Z,5.10
2018-12-26T14:36:12.726Z,5.10
2018-12-26T14:38:42.405Z,5.10
2018-12-26T14:41:12.385Z,5.10
2018-12-26T14:43:42.096Z,5.10
2018-12-26T14:46:11.722Z,5.10
2018-12-26T14:48:42.718Z,5.10
2018-12-26T14:51:11.981Z,5.00
2018-12-26T14:53:41.474Z,5.00
2018-12-26T14:56:11.009Z,5.00
2018-12-26T14:58:41.470Z,4.90
2018-12-26T15:01:10.988Z,4.90
2018-12-26T15:03:40.545Z,4.90
2018-12-26T15:06:10.120Z,4.90
2018-12-26T15:08:40.640Z,4.90
2018-12-26T15:11:10.353Z,4.80
2018-12-26T15:13:39.900Z,4.90
2018-12-26T15:16:10.631Z,4.80
2018-12-26T15:18:41.018Z,4.80
2018-12-26T15:21:12.655Z,4.80
2018-12-26T15:23:41.857Z,4.70
2018-12-26T15:26:11.438Z,4.70
2018-12-26T15:28:41.800Z,4.70
2018-12-26T15:31:11.248Z,4.70
2018-12-26T15:33:40.816Z,4.60
2018-12-26T15:36:11.422Z,4.60
2018-12-26T15:38:40.969Z,4.60
2018-12-26T15:41:10.782Z,4.50
2018-12-26T15:43:40.557Z,4.40
2018-12-26T15:46:10.080Z,4.40
2018-12-26T15:48:39.586Z,4.40
2018-12-26T15:51:08.923Z,4.50
2018-12-26T15:53:39.014Z,4.40
2018-12-26T15:56:08.063Z,4.50
2018-12-26T15:58:37.678Z,4.50
2018-12-26T16:01:06.994Z,4.50
2018-12-26T16:03:36.280Z,4.60
2018-12-26T16:06:07.495Z,4.60
2018-12-26T16:08:37.668Z,4.40
2018-12-26T16:11:07.789Z,4.40
2018-12-26T16:13:38.746Z,4.40
2018-12-26T16:16:09.225Z,4.40
2018-12-26T16:18:39.192Z,4.30
2018-12-26T16:21:08.999Z,4.40
2018-12-26T16:23:39.136Z,4.30
2018-12-26T16:26:08.801Z,4.30
2018-12-26T16:28:38.446Z,4.30
2018-12-26T16:31:08.879Z,4.40
2018-12-26T16:33:38.301Z,4.40
2018-12-26T16:36:07.832Z,4.50
2018-12-26T16:38:37.483Z,4.40
2018-12-26T16:41:06.809Z,4.60
2018-12-26T16:43:36.285Z,4.60
2018-12-26T16:46:05.818Z,4.60
2018-12-26T16:48:37.679Z,4.60
2018-12-26T16:51:07.224Z,4.60
2018-12-26T16:53:36.836Z,4.60
2018-12-26T16:56:07.055Z,4.60
2018-12-26T16:58:38.796Z,4.40
2018-12-26T17:01:08.195Z,4.30
2018-12-26T17:03:38.064Z,4.40
2018-12-26T17:06:07.368Z,4.50
2018-12-26T17:08:36.604Z,4.40
2018-12-26T17:11:05.958Z,4.50
2018-12-26T17:13:35.775Z,4.50
2018-12-26T17:16:05.623Z,4.70
2018-12-26T17:18:35.201Z,4.70
2018-12-26T17:21:07.089Z,4.70
2018-12-26T17:23:39.431Z,4.80
2018-12-26T17:26:10.995Z,4.90
2018-12-26T17:28:42.082Z,4.80
2018-12-26T17:31:13.712Z,4.80
2018-12-26T17:33:43.817Z,4.70
2018-12-26T17:36:13.919Z,4.70
2018-12-26T17:38:43.451Z,4.50
2018-12-26T17:41:12.816Z,4.50
2018-12-26T17:43:43.544Z,4.50
2018-12-26T17:46:13.274Z,4.60
2018-12-26T17:48:42.796Z,4.60
2018-12-26T17:51:12.105Z,4.60
2018-12-26T17:53:44.953Z,4.60
2018-12-26T17:56:17.985Z,4.60
2018-12-26T17:58:52.266Z,4.60
2018-12-26T18:04:20.563Z,4.80
2018-12-26T18:06:50.138Z,4.80
2018-12-26T18:09:19.874Z,4.80
2018-12-26T18:11:51.487Z,4.80
2018-12-26T18:14:19.963Z,5.00
2018-12-26T18:16:51.038Z,5.00
2018-12-26T18:19:20.591Z,5.10
2018-12-26T18:21:50.995Z,5.10
2018-12-26T18:24:20.839Z,5.10
2018-12-26T18:26:51.677Z,5.10
2018-12-26T18:29:21.770Z,5.10
2018-12-26T18:31:51.490Z,5.00
2018-12-26T18:34:21.934Z,5.00
2018-12-26T18:36:52.390Z,5.10
2018-12-26T18:39:22.239Z,5.10
2018-12-26T18:41:51.853Z,5.10
2018-12-26T18:44:21.858Z,5.00
2018-12-26T18:46:52.188Z,5.00
2018-12-26T18:49:22.030Z,5.10
2018-12-26T18:51:51.634Z,5.20
2018-12-26T18:54:21.215Z,5.20
2018-12-26T18:56:50.454Z,5.10
2018-12-26T18:59:20.050Z,5.10
2018-12-26T19:01:50.592Z,5.20
2018-12-26T19:04:20.610Z,5.20
2018-12-26T19:06:50.283Z,5.20
2018-12-26T19:09:20.151Z,5.20
2018-12-26T19:11:49.819Z,5.20
2018-12-26T19:14:19.404Z,5.20
2018-12-26T19:16:49.464Z,5.10
2018-12-26T19:19:19.930Z,5.10
2018-12-26T19:21:49.837Z,5.10
2018-12-26T19:24:19.432Z,5.20
2018-12-26T19:26:49.149Z,5.20
2018-12-26T19:29:18.682Z,5.30
2018-12-26T19:31:48.352Z,5.30
2018-12-26T19:34:18.144Z,5.40
2018-12-26T19:36:47.627Z,5.40
2018-12-26T19:39:16.823Z,5.40
2018-12-26T19:41:46.399Z,5.40
2018-12-26T19:44:16.023Z,5.50
2018-12-26T19:46:45.944Z,5.50
2018-12-26T19:49:17.067Z,5.40
2018-12-26T19:51:46.442Z,5.50
2018-12-26T19:54:15.905Z,5.50
2018-12-26T19:56:45.426Z,5.60
2018-12-26T19:59:15.668Z,5.60
2018-12-26T20:01:48.257Z,5.60
2018-12-26T20:04:15.191Z,5.60
2018-12-26T20:06:46.129Z,5.60
2018-12-26T20:09:15.939Z,5.60
2018-12-26T20:11:45.994Z,5.60
2018-12-26T20:14:16.084Z,5.60
2018-12-26T20:16:47.296Z,5.60
2018-12-26T20:19:16.096Z,5.60
2018-12-26T20:21:45.464Z,5.60
2018-12-26T20:24:15.349Z,5.60
2018-12-26T20:26:44.783Z,5.70
2018-12-26T20:29:15.146Z,5.70
2018-12-26T20:31:45.890Z,5.70
2018-12-26T20:34:15.695Z,5.70
2018-12-26T20:36:45.747Z,5.70
2018-12-26T20:39:15.502Z,5.60
2018-12-26T20:41:45.744Z,5.50
2018-12-26T20:44:15.411Z,5.50
2018-12-26T20:46:45.891Z,5.50
2018-12-26T20:49:15.621Z,5.50
2018-12-26T20:51:45.193Z,5.50
2018-12-26T20:54:14.722Z,5.60
2018-12-26T20:56:44.458Z,5.50
2018-12-26T20:59:14.661Z,5.50
2018-12-26T21:01:44.206Z,5.50
2018-12-26T21:04:13.771Z,5.50
2018-12-26T21:06:43.119Z,5.50
2018-12-26T21:09:12.495Z,5.50
2018-12-26T21:11:42.634Z,5.50
2018-12-26T21:14:13.172Z,5.50
2018-12-26T21:16:42.205Z,5.50
2018-12-26T21:19:11.558Z,5.30
2018-12-26T21:21:41.150Z,5.40
2018-12-26T21:24:10.681Z,5.40
2018-12-26T21:26:42.361Z,5.50
2018-12-26T21:29:11.910Z,5.60
2018-12-26T21:31:41.344Z,5.70
2018-12-26T21:34:11.058Z,5.70
2018-12-26T21:36:40.355Z,5.70
2018-12-26T21:39:10.166Z,5.60
2018-12-26T21:41:39.794Z,5.70
2018-12-26T21:44:09.611Z,5.70
2018-12-26T21:46:39.283Z,5.70
2018-12-26T21:49:09.084Z,5.80
2018-12-26T21:54:13.564Z,5.90
2018-12-26T21:56:43.090Z,5.80
2018-12-26T21:59:12.832Z,5.80
2018-12-26T22:01:42.223Z,5.80
2018-12-26T22:04:11.966Z,5.80
2018-12-26T22:06:42.630Z,5.80
2018-12-26T22:09:12.371Z,5.80
2018-12-26T22:11:42.036Z,5.90
2018-12-26T22:14:11.484Z,5.90
2018-12-26T22:16:44.554Z,5.90
2018-12-26T22:19:14.139Z,5.80
2018-12-26T22:21:44.772Z,5.80
2018-12-26T22:24:15.376Z,5.80
2018-12-26T22:26:45.145Z,5.80
2018-12-26T22:29:14.792Z,5.80
2018-12-26T22:31:44.979Z,5.60
2018-12-26T22:34:14.768Z,5.60
2018-12-26T22:36:44.208Z,5.60
2018-12-26T22:39:13.717Z,5.60
2018-12-26T22:41:43.482Z,5.70
2018-12-26T22:44:13.248Z,5.60
2018-12-26T22:46:43.132Z,5.70
2018-12-26T22:49:13.391Z,5.70
2018-12-26T22:51:44.714Z,5.70
2018-12-26T22:54:14.316Z,5.70
2018-12-26T22:56:45.261Z,5.70
2018-12-26T22:59:15.035Z,5.70
2018-12-26T23:01:44.837Z,5.70
2018-12-26T23:04:14.628Z,5.70
2018-12-26T23:06:45.071Z,5.70
2018-12-26T23:09:15.726Z,5.70
2018-12-26T23:11:47.556Z,5.70
2018-12-26T23:14:18.105Z,5.70
2018-12-26T23:16:47.504Z,5.70
2018-12-26T23:19:17.898Z,5.70
2018-12-26T23:21:48.144Z,5.70
2018-12-26T23:24:17.720Z,5.70
2018-12-26T23:26:48.887Z,5.70
2018-12-26T23:29:18.419Z,5.70
2018-12-26T23:31:48.367Z,5.60
2018-12-26T23:34:17.920Z,5.60
2018-12-26T23:36:47.730Z,5.70
2018-12-26T23:39:17.414Z,5.70
2018-12-26T23:41:47.268Z,5.70
2018-12-26T23:44:16.960Z,5.80
2018-12-26T23:46:48.668Z,5.70
2018-12-26T23:49:20.092Z,5.70
2018-12-26T23:51:51.050Z,5.70
2018-12-26T23:54:22.901Z,5.70
2018-12-26T23:56:53.034Z,5.70
2018-12-26T23:59:23.501Z,5.70
